createdAt,value
2023-04-03T00:02:02.656Z,99.90
2023-04-03T00:04:29.557Z,99.90
2023-04-03T00:06:56.347Z,99.90
2023-04-03T00:09:23.079Z,99.90
2023-04-03T00:11:49.825Z,99.90
2023-04-03T00:14:16.855Z,99.90
2023-04-03T00:16:43.647Z,99.90
2023-04-03T00:19:12.756Z,99.90
2023-04-03T00:21:39.668Z,99.90
2023-04-03T00:24:06.873Z,99.90
2023-04-03T00:26:33.638Z,99.90
2023-04-03T00:29:00.374Z,99.90
2023-04-03T00:31:27.209Z,99.90
2023-04-03T00:33:53.990Z,99.90
2023-04-03T00:36:20.846Z,99.90
2023-04-03T00:38:47.612Z,99.90
2023-04-03T00:41:14.401Z,99.90
2023-04-03T00:43:41.169Z,99.90
2023-04-03T00:46:07.928Z,99.90
2023-04-03T00:48:43.076Z,99.90
2023-04-03T00:51:12.570Z,99.90
2023-04-03T00:53:59.862Z,99.90
2023-04-03T00:56:27.152Z,99.90
2023-04-03T00:59:07.669Z,99.90
2023-04-03T01:01:34.466Z,99.90
2023-04-03T01:04:02.102Z,99.90
2023-04-03T01:06:32.208Z,99.90
2023-04-03T01:08:58.955Z,99.90
2023-04-03T01:11:25.838Z,99.90
2023-04-03T01:13:52.737Z,99.90
2023-04-03T01:16:19.972Z,99.90
2023-04-03T01:18:46.847Z,99.90
2023-04-03T01:21:25.653Z,99.90
2023-04-03T01:24:11.579Z,99.90
2023-04-03T01:26:38.373Z,99.90
2023-04-03T01:29:05.461Z,99.90
2023-04-03T01:31:56.457Z,99.90
2023-04-03T01:34:23.600Z,99.90
2023-04-03T01:36:50.396Z,99.90
2023-04-03T01:39:17.193Z,99.90
2023-04-03T01:41:43.950Z,99.90
2023-04-03T01:44:10.686Z,99.90
2023-04-03T01:46:38.573Z,99.90
2023-04-03T01:49:05.570Z,99.90
2023-04-03T01:51:32.457Z,99.90
2023-04-03T01:53:59.187Z,99.90
2023-04-03T01:56:26.146Z,99.90
2023-04-03T01:58:52.868Z,99.90
2023-04-03T02:01:19.674Z,99.90
2023-04-03T02:03:46.516Z,99.90
2023-04-03T02:06:13.277Z,99.90
2023-04-03T02:08:40.074Z,99.90
2023-04-03T02:11:06.979Z,99.90
2023-04-03T02:13:33.770Z,99.90
2023-04-03T02:16:00.545Z,99.90
2023-04-03T02:18:27.284Z,99.90
2023-04-03T02:20:53.993Z,99.90
2023-04-03T02:23:20.873Z,99.90
2023-04-03T02:25:47.592Z,99.90
2023-04-03T02:28:14.332Z,99.90
2023-04-03T02:30:41.141Z,99.90
2023-04-03T02:33:08.006Z,99.90
2023-04-03T02:35:34.842Z,99.90
2023-04-03T02:38:01.599Z,99.90
2023-04-03T02:40:28.318Z,99.90
2023-04-03T02:42:55.178Z,99.90
2023-04-03T02:45:21.932Z,99.90
2023-04-03T02:47:48.689Z,99.90
2023-04-03T02:50:15.561Z,99.90
2023-04-03T02:52:42.289Z,99.90
2023-04-03T02:55:09.144Z,99.90
2023-04-03T02:57:36.459Z,99.90
2023-04-03T03:00:04.029Z,99.90
2023-04-03T03:02:30.856Z,99.90
2023-04-03T03:04:57.724Z,99.90
2023-04-03T03:07:24.731Z,99.90
2023-04-03T03:09:51.504Z,99.90
2023-04-03T03:12:22.546Z,99.90
2023-04-03T03:14:49.495Z,99.90
2023-04-03T03:17:16.567Z,99.90
2023-04-03T03:19:43.329Z,99.90
2023-04-03T03:22:10.067Z,99.90
2023-04-03T03:24:36.805Z,99.90
2023-04-03T03:27:03.617Z,99.90
2023-04-03T03:29:30.356Z,99.90
2023-04-03T03:31:57.083Z,99.90
2023-04-03T03:34:23.821Z,99.90
2023-04-03T03:36:50.552Z,99.90
2023-04-03T03:39:17.268Z,99.90
2023-04-03T03:41:44.021Z,99.90
2023-04-03T03:44:11.086Z,99.90
2023-04-03T03:46:37.876Z,99.90
2023-04-03T03:49:04.678Z,99.90
2023-04-03T03:51:31.420Z,99.90
2023-04-03T03:53:58.206Z,99.90
2023-04-03T03:56:24.984Z,99.90
2023-04-03T03:58:51.758Z,99.90
2023-04-03T04:01:18.952Z,99.90
2023-04-03T04:03:46.307Z,99.90
2023-04-03T04:06:13.243Z,99.90
2023-04-03T04:08:39.965Z,99.90
2023-04-03T04:11:06.709Z,99.90
2023-04-03T04:13:33.474Z,99.90
2023-04-03T04:16:00.411Z,99.90
2023-04-03T04:18:27.162Z,99.90
2023-04-03T04:20:53.909Z,99.90
2023-04-03T04:23:20.711Z,99.90
2023-04-03T04:25:48.157Z,99.90
2023-04-03T04:28:15.356Z,99.90
2023-04-03T04:30:42.154Z,99.90
2023-04-03T04:33:08.973Z,99.90
2023-04-03T04:35:36.197Z,99.90
2023-04-03T04:38:03.552Z,99.90
2023-04-03T04:40:30.331Z,99.90
2023-04-03T04:42:57.052Z,99.90
2023-04-03T04:45:23.819Z,99.90
2023-04-03T04:47:52.548Z,99.90
2023-04-03T04:50:19.793Z,99.90
2023-04-03T04:52:46.871Z,99.90
2023-04-03T04:55:13.649Z,99.90
2023-04-03T04:57:40.659Z,99.90
2023-04-03T05:00:08.003Z,99.90
2023-04-03T05:02:34.864Z,99.90
2023-04-03T05:05:03.706Z,99.90
2023-04-03T05:07:31.740Z,99.90
2023-04-03T05:09:58.446Z,99.90
2023-04-03T05:12:25.314Z,99.90
2023-04-03T05:14:52.090Z,99.90
2023-04-03T05:17:18.818Z,99.90
2023-04-03T05:19:45.568Z,99.90
2023-04-03T05:22:12.304Z,99.90
2023-04-03T05:24:39.064Z,99.90
2023-04-03T05:27:05.828Z,99.90
2023-04-03T05:29:32.556Z,99.90
2023-04-03T05:31:59.443Z,99.90
2023-04-03T05:34:26.219Z,99.90
2023-04-03T05:36:52.940Z,99.90
2023-04-03T05:39:20.300Z,99.90
2023-04-03T05:41:46.975Z,99.90
2023-04-03T05:44:13.646Z,99.90
2023-04-03T05:46:40.408Z,99.90
2023-04-03T05:49:07.109Z,99.90
2023-04-03T05:51:36.291Z,99.90
2023-04-03T05:54:14.061Z,99.90
2023-04-03T05:56:40.958Z,99.90
2023-04-03T05:59:08.345Z,99.90
2023-04-03T06:01:35.471Z,99.90
2023-04-03T06:04:02.330Z,99.90
2023-04-03T06:06:56.311Z,99.90
2023-04-03T06:09:24.925Z,99.90
2023-04-03T06:11:52.220Z,99.90
2023-04-03T06:14:18.980Z,99.90
2023-04-03T06:16:45.994Z,99.90
2023-04-03T06:19:13.097Z,99.90
2023-04-03T06:21:39.922Z,99.90
2023-04-03T06:24:07.376Z,99.90
2023-04-03T06:26:34.898Z,99.90
2023-04-03T06:29:01.645Z,99.90
2023-04-03T06:31:28.462Z,99.90
2023-04-03T06:33:55.239Z,99.90
2023-04-03T06:36:22.110Z,99.90
2023-04-03T06:38:49.334Z,99.90
2023-04-03T06:41:17.455Z,99.90
2023-04-03T06:43:45.548Z,99.90
2023-04-03T06:46:16.805Z,99.90
2023-04-03T06:48:43.851Z,99.90
2023-04-03T06:51:21.608Z,99.90
2023-04-03T06:53:49.021Z,99.90
2023-04-03T06:56:16.342Z,99.90
2023-04-03T06:58:43.447Z,99.90
2023-04-03T07:01:14.061Z,99.90
2023-04-03T07:03:41.020Z,99.90
2023-04-03T07:06:08.110Z,99.90
2023-04-03T07:08:35.524Z,99.90
2023-04-03T07:11:02.281Z,99.90
2023-04-03T07:13:29.075Z,99.90
2023-04-03T07:15:55.843Z,99.90
2023-04-03T07:18:23.259Z,99.90
2023-04-03T07:20:50.029Z,99.90
2023-04-03T07:23:16.857Z,99.90
2023-04-03T07:25:45.205Z,99.90
2023-04-03T07:28:12.734Z,99.90
2023-04-03T07:30:52.811Z,99.90
2023-04-03T07:33:20.736Z,99.90
2023-04-03T07:35:47.498Z,99.90
2023-04-03T07:38:14.333Z,99.90
2023-04-03T07:40:41.585Z,99.90
2023-04-03T07:43:08.465Z,99.90
2023-04-03T07:45:38.485Z,99.90
2023-04-03T07:48:05.776Z,99.90
2023-04-03T07:50:33.333Z,99.90
2023-04-03T07:53:00.414Z,99.90
2023-04-03T07:55:27.185Z,99.90
2023-04-03T07:57:53.890Z,93.90
2023-04-03T08:00:21.141Z,94.50
2023-04-03T08:02:52.916Z,91.10
2023-04-03T08:05:20.855Z,94.20
2023-04-03T08:07:48.074Z,93.00
2023-04-03T08:10:15.363Z,92.80
2023-04-03T08:12:42.743Z,94.60
2023-04-03T08:15:09.881Z,84.60
2023-04-03T08:17:36.807Z,90.00
2023-04-03T08:20:05.618Z,87.60
2023-04-03T08:22:32.450Z,86.50
2023-04-03T08:24:59.770Z,77.90
2023-04-03T08:27:30.263Z,85.00
2023-04-03T08:29:58.148Z,77.90
2023-04-03T08:32:25.287Z,85.00
2023-04-03T08:34:52.156Z,77.70
2023-04-03T08:37:19.000Z,74.70
2023-04-03T08:39:45.812Z,79.10
2023-04-03T08:42:35.049Z,71.00
2023-04-03T08:45:23.580Z,51.70
2023-04-03T08:48:08.404Z,62.20
2023-04-03T08:50:39.126Z,56.90
2023-04-03T08:53:07.735Z,50.90
2023-04-03T08:55:40.147Z,54.20
2023-04-03T08:58:18.024Z,56.90
2023-04-03T09:00:52.115Z,54.60
2023-04-03T09:03:22.699Z,52.40
2023-04-03T09:05:51.997Z,54.70
2023-04-03T09:08:28.728Z,52.50
2023-04-03T09:11:24.013Z,53.10
2023-04-03T09:14:00.931Z,41.40
2023-04-03T09:16:42.877Z,42.90
2023-04-03T09:19:12.449Z,41.40
2023-04-03T09:21:39.653Z,41.50
2023-04-03T09:24:08.295Z,38.70
2023-04-03T09:26:39.041Z,45.70
2023-04-03T09:29:07.291Z,43.10
2023-04-03T09:31:42.488Z,48.20
2023-04-03T09:34:38.412Z,37.40
2023-04-03T09:37:09.684Z,34.30
2023-04-03T09:39:55.448Z,36.10
2023-04-03T09:42:25.910Z,39.10
2023-04-03T09:45:00.206Z,39.80
2023-04-03T09:47:34.879Z,38.90
2023-04-03T09:50:14.311Z,40.70
2023-04-03T09:52:45.578Z,39.20
2023-04-03T09:55:20.509Z,39.20
2023-04-03T09:57:47.431Z,42.10
2023-04-03T10:00:26.394Z,40.40
2023-04-03T10:02:59.422Z,43.40
2023-04-03T10:05:40.405Z,41.10
2023-04-03T10:08:16.413Z,40.70
2023-04-03T10:10:48.087Z,39.70
2023-04-03T10:13:21.175Z,42.30
2023-04-03T10:15:54.998Z,43.50
2023-04-03T10:18:54.111Z,42.60
2023-04-03T10:21:40.895Z,37.70
2023-04-03T10:24:11.804Z,33.90
2023-04-03T10:26:54.393Z,38.20
2023-04-03T10:29:59.443Z,36.00
2023-04-03T10:32:56.192Z,36.90
2023-04-03T10:35:55.420Z,29.90
2023-04-03T10:38:33.733Z,35.70
2023-04-03T10:41:17.535Z,32.10
2023-04-03T10:43:51.085Z,26.40
2023-04-03T10:46:54.378Z,30.20
2023-04-03T10:49:42.557Z,23.90
2023-04-03T10:52:25.140Z,23.20
2023-04-03T10:55:12.894Z,19.50
2023-04-03T10:57:39.642Z,20.60
2023-04-03T11:00:11.328Z,23.80
2023-04-03T11:02:41.944Z,21.80
2023-04-03T11:05:33.584Z,20.20
2023-04-03T11:08:03.850Z,16.70
2023-04-03T11:10:49.244Z,20.30
2023-04-03T11:13:18.586Z,18.30
2023-04-03T11:15:48.107Z,19.60
2023-04-03T11:18:16.290Z,18.40
2023-04-03T11:20:45.621Z,11.40
2023-04-03T11:23:32.818Z,17.30
2023-04-03T11:26:24.733Z,15.20
2023-04-03T11:28:57.517Z,14.60
2023-04-03T11:32:05.641Z,11.10
2023-04-03T11:34:35.338Z,9.00
2023-04-03T11:37:02.580Z,12.50
2023-04-03T11:39:38.825Z,9.90
2023-04-03T11:42:21.376Z,7.60
2023-04-03T11:44:48.133Z,5.80
2023-04-03T11:47:55.097Z,11.80
2023-04-03T11:50:42.750Z,8.00
2023-04-03T11:53:12.618Z,5.40
2023-04-03T11:55:51.577Z,9.30
2023-04-03T11:58:19.713Z,7.90
2023-04-03T12:00:47.346Z,7.80
2023-04-03T12:03:29.959Z,7.50
2023-04-03T12:05:59.551Z,7.10
2023-04-03T12:08:30.355Z,9.50
2023-04-03T12:11:12.371Z,11.30
2023-04-03T12:13:42.839Z,5.80
2023-04-03T12:16:38.786Z,7.70
2023-04-03T12:19:29.344Z,7.40
2023-04-03T12:22:03.725Z,9.30
2023-04-03T12:24:37.850Z,8.60
2023-04-03T12:27:27.166Z,7.70
2023-04-03T12:30:12.687Z,7.80
2023-04-03T12:33:09.603Z,7.10
2023-04-03T12:35:55.159Z,10.20
2023-04-03T12:38:37.160Z,10.20
2023-04-03T12:41:31.841Z,7.20
2023-04-03T12:44:07.493Z,7.30
2023-04-03T12:46:44.808Z,7.20
2023-04-03T12:49:39.787Z,8.90
2023-04-03T12:52:18.033Z,7.60
2023-04-03T12:54:44.995Z,7.80
2023-04-03T12:57:22.785Z,8.10
2023-04-03T12:59:49.698Z,6.10
2023-04-03T13:02:24.890Z,6.90
2023-04-03T13:04:59.630Z,6.90
2023-04-03T13:07:33.733Z,7.30
2023-04-03T13:10:02.510Z,8.90
2023-04-03T13:12:31.148Z,7.80
2023-04-03T13:15:01.476Z,10.60
2023-04-03T13:17:28.824Z,8.10
2023-04-03T13:19:55.597Z,9.30
2023-04-03T13:22:28.618Z,8.90
2023-04-03T13:24:56.112Z,9.70
2023-04-03T13:27:23.287Z,6.30
2023-04-03T13:29:52.378Z,8.30
2023-04-03T13:32:24.063Z,8.90
2023-04-03T13:34:51.009Z,8.80
2023-04-03T13:37:24.904Z,9.50
2023-04-03T13:40:10.234Z,6.80
2023-04-03T13:42:38.590Z,6.70
2023-04-03T13:45:14.270Z,8.00
2023-04-03T13:47:42.574Z,10.00
2023-04-03T13:50:12.414Z,9.70
2023-04-03T13:52:44.558Z,10.10
2023-04-03T13:55:24.786Z,6.70
2023-04-03T13:57:53.884Z,8.10
2023-04-03T14:00:42.543Z,8.90
2023-04-03T14:03:25.824Z,8.00
2023-04-03T14:05:52.715Z,9.20
2023-04-03T14:08:24.311Z,10.00
2023-04-03T14:10:59.361Z,8.30
2023-04-03T14:13:26.162Z,9.60
2023-04-03T14:15:53.924Z,7.70
2023-04-03T14:18:21.910Z,7.80
2023-04-03T14:20:49.123Z,7.30
2023-04-03T14:23:15.913Z,9.30
2023-04-03T14:25:42.825Z,10.80
2023-04-03T14:28:21.787Z,6.50
2023-04-03T14:30:50.997Z,6.70
2023-04-03T14:33:20.048Z,7.60
2023-04-03T14:35:46.819Z,8.20
2023-04-03T14:38:29.247Z,8.20
2023-04-03T14:41:00.883Z,6.50
2023-04-03T14:43:33.340Z,8.50
2023-04-03T14:46:00.147Z,7.40
2023-04-03T14:48:27.925Z,7.10
2023-04-03T14:51:04.669Z,10.30
2023-04-03T14:53:38.845Z,9.50
2023-04-03T14:56:18.157Z,9.20
2023-04-03T14:58:44.953Z,6.70
2023-04-03T15:01:13.126Z,7.00
2023-04-03T15:03:40.128Z,7.60
2023-04-03T15:06:07.016Z,7.50
2023-04-03T15:08:33.746Z,6.60
2023-04-03T15:11:01.878Z,1.50
2023-04-03T15:13:28.612Z,5.10
2023-04-03T15:15:55.409Z,6.00
2023-04-03T15:18:30.920Z,5.00
2023-04-03T15:20:57.851Z,1.00
2023-04-03T15:23:29.236Z,2.50
2023-04-03T15:25:56.028Z,1.90
2023-04-03T15:28:29.679Z,1.40
2023-04-03T15:30:56.628Z,3.30
2023-04-03T15:33:23.627Z,2.80
2023-04-03T15:35:50.597Z,6.30
2023-04-03T15:38:17.692Z,5.40
2023-04-03T15:40:44.765Z,5.00
2023-04-03T15:43:11.836Z,6.20
2023-04-03T15:45:38.832Z,5.90
2023-04-03T15:48:06.288Z,6.50
2023-04-03T15:50:34.321Z,6.10
2023-04-03T15:53:02.549Z,7.80
2023-04-03T15:55:33.757Z,9.30
2023-04-03T15:58:00.933Z,10.40
2023-04-03T16:00:27.939Z,10.70
2023-04-03T16:02:58.432Z,11.10
2023-04-03T16:05:25.309Z,10.10
2023-04-03T16:07:52.084Z,9.00
2023-04-03T16:10:19.670Z,7.90
2023-04-03T16:12:46.582Z,8.90
2023-04-03T16:15:13.320Z,7.80
2023-04-03T16:17:41.897Z,7.80
2023-04-03T16:20:09.404Z,7.70
2023-04-03T16:22:36.461Z,8.30
2023-04-03T16:25:03.355Z,1.00
2023-04-03T16:27:31.899Z,4.10
2023-04-03T16:29:58.926Z,3.40
2023-04-03T16:32:26.941Z,2.80
2023-04-03T16:34:53.765Z,3.30
2023-04-03T16:37:20.538Z,4.70
2023-04-03T16:39:47.280Z,5.50
2023-04-03T16:42:14.058Z,6.30
2023-04-03T16:44:40.958Z,7.50
2023-04-03T16:47:08.815Z,7.50
2023-04-03T16:49:36.104Z,6.90
2023-04-03T16:52:03.459Z,7.20
2023-04-03T16:54:30.490Z,7.80
2023-04-03T16:56:57.335Z,6.70
2023-04-03T16:59:24.309Z,8.10
2023-04-03T17:01:51.153Z,7.40
2023-04-03T17:04:17.954Z,8.60
2023-04-03T17:06:44.721Z,9.40
2023-04-03T17:09:11.805Z,10.00
2023-04-03T17:11:39.180Z,7.60
2023-04-03T17:14:06.474Z,6.20
2023-04-03T17:16:34.853Z,7.20
2023-04-03T17:19:01.735Z,6.90
2023-04-03T17:21:28.520Z,8.10
2023-04-03T17:24:00.374Z,8.00
2023-04-03T17:26:27.225Z,5.90
2023-04-03T17:28:54.121Z,5.90
2023-04-03T17:31:20.865Z,6.70
2023-04-03T17:33:47.614Z,7.30
2023-04-03T17:36:14.383Z,6.60
2023-04-03T17:38:41.419Z,8.00
2023-04-03T17:41:08.566Z,8.20
2023-04-03T17:43:35.542Z,8.50
2023-04-03T17:46:03.907Z,9.70
2023-04-03T17:48:31.885Z,9.30
2023-04-03T17:50:58.786Z,9.60
2023-04-03T17:53:27.596Z,10.30
2023-04-03T17:55:54.756Z,10.70
2023-04-03T17:58:21.535Z,11.50
2023-04-03T18:00:48.268Z,11.30
2023-04-03T18:03:15.021Z,11.20
2023-04-03T18:05:41.787Z,11.50
2023-04-03T18:08:08.618Z,11.40
2023-04-03T18:10:38.492Z,11.90
2023-04-03T18:13:07.649Z,12.70
2023-04-03T18:15:34.522Z,12.20
2023-04-03T18:18:03.725Z,12.30
2023-04-03T18:20:30.843Z,11.80
2023-04-03T18:22:57.614Z,12.30
2023-04-03T18:25:24.422Z,13.60
2023-04-03T18:27:51.481Z,15.10
2023-04-03T18:30:18.341Z,15.00
2023-04-03T18:32:45.213Z,14.90
2023-04-03T18:35:12.195Z,15.20
2023-04-03T18:37:38.976Z,15.50
2023-04-03T18:40:06.553Z,16.70
2023-04-03T18:42:33.274Z,16.40
2023-04-03T18:45:00.843Z,17.70
2023-04-03T18:47:28.176Z,17.70
2023-04-03T18:49:55.013Z,18.00
2023-04-03T18:52:21.824Z,19.30
2023-04-03T18:54:48.574Z,19.60
2023-04-03T18:57:15.289Z,20.30
2023-04-03T18:59:42.015Z,21.00
2023-04-03T19:02:08.802Z,21.90
2023-04-03T19:04:35.726Z,22.60
2023-04-03T19:07:05.522Z,22.60
2023-04-03T19:09:35.637Z,23.40
2023-04-03T19:12:02.387Z,24.90
2023-04-03T19:14:29.250Z,24.00
2023-04-03T19:16:56.316Z,23.90
2023-04-03T19:19:23.235Z,23.90
2023-04-03T19:21:50.667Z,24.00
2023-04-03T19:24:18.637Z,23.90
2023-04-03T19:26:46.068Z,24.10
2023-04-03T19:29:12.904Z,23.90
2023-04-03T19:31:40.006Z,25.20
2023-04-03T19:34:07.090Z,25.30
2023-04-03T19:36:34.079Z,26.10
2023-04-03T19:39:01.004Z,25.70
2023-04-03T19:41:30.727Z,26.20
2023-04-03T19:43:57.408Z,26.60
2023-04-03T19:46:25.316Z,31.80
2023-04-03T19:48:52.313Z,29.10
2023-04-03T19:51:19.124Z,28.40
2023-04-03T19:53:47.347Z,29.00
2023-04-03T19:56:16.583Z,29.60
2023-04-03T19:58:43.432Z,28.80
2023-04-03T20:01:10.254Z,29.30
2023-04-03T20:03:36.987Z,29.60
2023-04-03T20:06:04.970Z,29.30
2023-04-03T20:08:32.240Z,30.50
2023-04-03T20:10:58.956Z,30.70
2023-04-03T20:13:25.779Z,30.00
2023-04-03T20:15:53.439Z,31.30
2023-04-03T20:18:20.622Z,33.40
2023-04-03T20:20:54.049Z,33.30
2023-04-03T20:23:20.974Z,34.30
2023-04-03T20:26:08.374Z,33.20
2023-04-03T20:28:36.692Z,32.50
2023-04-03T20:31:04.409Z,36.10
2023-04-03T20:33:31.166Z,34.60
2023-04-03T20:35:58.696Z,33.30
2023-04-03T20:38:25.928Z,33.30
2023-04-03T20:40:52.666Z,33.50
2023-04-03T20:43:21.671Z,38.10
2023-04-03T20:45:49.302Z,40.30
2023-04-03T20:48:16.767Z,42.20
2023-04-03T20:50:45.803Z,40.80
2023-04-03T20:53:12.726Z,41.90
2023-04-03T20:55:39.405Z,42.20
2023-04-03T20:58:06.070Z,43.00
2023-04-03T21:00:32.766Z,46.50
2023-04-03T21:02:59.727Z,45.90
2023-04-03T21:05:29.040Z,47.80
2023-04-03T21:08:33.394Z,45.80
2023-04-03T21:11:37.600Z,51.40
2023-04-03T21:14:42.511Z,55.00
2023-04-03T21:17:09.144Z,57.90
2023-04-03T21:19:43.137Z,58.80
2023-04-03T21:24:51.896Z,62.70
2023-04-03T21:27:18.697Z,66.90
2023-04-03T21:29:45.487Z,64.60
2023-04-03T21:32:12.329Z,64.60
2023-04-03T21:34:39.145Z,65.90
2023-04-03T21:37:07.713Z,65.50
2023-04-03T21:39:34.651Z,69.20
2023-04-03T21:42:01.833Z,70.00
2023-04-03T21:44:28.710Z,70.40
2023-04-03T21:46:55.604Z,69.50
2023-04-03T21:49:23.156Z,72.90
2023-04-03T21:51:51.576Z,73.00
2023-04-03T21:54:18.791Z,72.70
2023-04-03T21:56:47.976Z,76.10
2023-04-03T21:59:15.243Z,75.20
2023-04-03T22:01:42.134Z,78.10
2023-04-03T22:04:08.854Z,78.60
2023-04-03T22:06:37.360Z,81.80
2023-04-03T22:09:04.169Z,85.10
2023-04-03T22:11:31.220Z,84.70
2023-04-03T22:13:58.192Z,80.70
2023-04-03T22:16:25.083Z,84.60
2023-04-03T22:18:52.592Z,87.70
2023-04-03T22:21:20.386Z,86.40
2023-04-03T22:23:47.797Z,86.60
2023-04-03T22:26:14.935Z,85.70
2023-04-03T22:28:46.140Z,90.10
2023-04-03T22:31:16.824Z,90.30
2023-04-03T22:33:44.419Z,91.20
2023-04-03T22:36:12.128Z,89.70
2023-04-03T22:38:39.221Z,91.10
2023-04-03T22:41:07.501Z,91.50
2023-04-03T22:43:35.356Z,95.30
2023-04-03T22:46:02.765Z,95.00
2023-04-03T22:48:30.763Z,94.50
2023-04-03T22:50:57.486Z,96.80
2023-04-03T22:53:24.243Z,94.90
2023-04-03T22:55:58.603Z,97.70
2023-04-03T22:58:28.753Z,97.10
2023-04-03T23:00:56.733Z,97.50
2023-04-03T23:03:24.301Z,98.10
2023-04-03T23:05:53.719Z,97.70
2023-04-03T23:08:20.987Z,99.90
2023-04-03T23:10:47.728Z,99.90
2023-04-03T23:13:14.388Z,99.90
2023-04-03T23:15:41.288Z,99.00
2023-04-03T23:18:08.095Z,98.60
2023-04-03T23:20:34.832Z,99.90
2023-04-03T23:23:01.564Z,99.90
2023-04-03T23:25:28.907Z,99.90
2023-04-03T23:27:56.243Z,99.90
2023-04-03T23:30:23.038Z,99.90
2023-04-03T23:32:49.874Z,99.90
2023-04-03T23:35:16.732Z,99.90
2023-04-03T23:37:43.584Z,99.90
2023-04-03T23:40:10.883Z,99.90
2023-04-03T23:42:37.880Z,99.90
2023-04-03T23:45:04.952Z,99.90
2023-04-03T23:47:31.934Z,99.90
2023-04-03T23:49:58.730Z,99.90
2023-04-03T23:52:25.480Z,98.80
2023-04-03T23:54:52.297Z,99.10
2023-04-03T23:57:19.145Z,99.90
2023-04-03T23:59:46.203Z,99.90
